sensor_id;sensor_type;location;lat;lon;timestamp;P1;durP1;ratioP1;P2;durP2;ratioP2
31596;SDS011;74162;50.912;6.918;2023-12-20T00:00:19;22.30;;;19.90;;
31596;SDS011;74162;50.912;6.918;2023-12-20T00:00:56;22.92;;;20.45;;
31596;SDS011;74162;50.912;6.918;2023-12-20T00:01:35;24.13;;;21.50;;
31596;SDS011;74162;50.912;6.918;2023-12-20T00:02:09;27.55;;;22.85;;
31596;SDS011;74162;50.912;6.918;2023-12-20T00:02:45;27.02;;;22.85;;
31596;SDS011;74162;50.912;6.918;2023-12-20T00:03:43;32.78;;;23.45;;
31596;SDS011;74162;50.912;6.918;2023-12-20T00:04:27;27.60;;;23.42;;
31596;SDS011;74162;50.912;6.918;2023-12-20T00:05:04;28.52;;;23.40;;
31596;SDS011;74162;50.912;6.918;2023-12-20T00:06:06;26.33;;;23.52;;
31596;SDS011;74162;50.912;6.918;2023-12-20T00:06:40;28.23;;;23.98;;
31596;SDS011;74162;50.912;6.918;2023-12-20T00:07:14;27.38;;;24.42;;
31596;SDS011;74162;50.912;6.918;2023-12-20T00:07:56;27.25;;;23.40;;
31596;SDS011;74162;50.912;6.918;2023-12-20T00:08:35;27.92;;;24.30;;
31596;SDS011;74162;50.912;6.918;2023-12-20T00:09:17;27.23;;;24.10;;
31596;SDS011;74162;50.912;6.918;2023-12-20T00:10:00;29.45;;;24.23;;
31596;SDS011;74162;50.912;6.918;2023-12-20T00:10:36;29.40;;;24.42;;
31596;SDS011;74162;50.912;6.918;2023-12-20T00:11:10;28.63;;;24.50;;
31596;SDS011;74162;50.912;6.918;2023-12-20T00:11:47;31.77;;;25.60;;
31596;SDS011;74162;50.912;6.918;2023-12-20T00:12:25;30.55;;;24.63;;
31596;SDS011;74162;50.912;6.918;2023-12-20T00:13:02;28.77;;;24.92;;
31596;SDS011;74162;50.912;6.918;2023-12-20T00:13:41;29.13;;;23.77;;
31596;SDS011;74162;50.912;6.918;2023-12-20T00:14:16;30.30;;;24.42;;
31596;SDS011;74162;50.912;6.918;2023-12-20T00:14:50;27.23;;;22.88;;
31596;SDS011;74162;50.912;6.918;2023-12-20T00:15:37;27.45;;;22.70;;
31596;SDS011;74162;50.912;6.918;2023-12-20T00:16:21;27.15;;;22.88;;
31596;SDS011;74162;50.912;6.918;2023-12-20T00:17:20;25.98;;;21.63;;
31596;SDS011;74162;50.912;6.918;2023-12-20T00:18:09;25.40;;;22.08;;
31596;SDS011;74162;50.912;6.918;2023-12-20T00:18:43;25.70;;;21.88;;
31596;SDS011;74162;50.912;6.918;2023-12-20T00:19:21;25.42;;;21.58;;
31596;SDS011;74162;50.912;6.918;2023-12-20T00:19:58;24.73;;;20.77;;
31596;SDS011;74162;50.912;6.918;2023-12-20T00:20:48;26.58;;;20.98;;
31596;SDS011;74162;50.912;6.918;2023-12-20T00:21:28;23.42;;;20.45;;
31596;SDS011;74162;50.912;6.918;2023-12-20T00:22:06;25.15;;;21.30;;
31596;SDS011;74162;50.912;6.918;2023-12-20T00:22:43;24.73;;;20.75;;
31596;SDS011;74162;50.912;6.918;2023-12-20T00:23:17;24.13;;;20.77;;
31596;SDS011;74162;50.912;6.918;2023-12-20T00:23:56;25.25;;;20.90;;
31596;SDS011;74162;50.912;6.918;2023-12-20T00:24:32;26.48;;;21.15;;
31596;SDS011;74162;50.912;6.918;2023-12-20T00:25:09;25.00;;;21.23;;
31596;SDS011;74162;50.912;6.918;2023-12-20T00:25:42;25.52;;;21.20;;
31596;SDS011;74162;50.912;6.918;2023-12-20T00:26:21;21.52;;;18.85;;
31596;SDS011;74162;50.912;6.918;2023-12-20T00:26:57;22.25;;;19.63;;
31596;SDS011;74162;50.912;6.918;2023-12-20T00:27:42;23.45;;;19.45;;
31596;SDS011;74162;50.912;6.918;2023-12-20T00:28:27;21.13;;;18.88;;
31596;SDS011;74162;50.912;6.918;2023-12-20T00:29:05;20.52;;;18.35;;
31596;SDS011;74162;50.912;6.918;2023-12-20T00:30:01;21.25;;;18.95;;
31596;SDS011;74162;50.912;6.918;2023-12-20T00:30:48;19.67;;;16.98;;
31596;SDS011;74162;50.912;6.918;2023-12-20T00:31:25;18.17;;;16.38;;
31596;SDS011;74162;50.912;6.918;2023-12-20T00:31:58;19.08;;;17.10;;
31596;SDS011;74162;50.912;6.918;2023-12-20T00:32:34;18.15;;;16.35;;
31596;SDS011;74162;50.912;6.918;2023-12-20T00:33:11;19.15;;;17.08;;
31596;SDS011;74162;50.912;6.918;2023-12-20T00:33:49;18.60;;;16.73;;
31596;SDS011;74162;50.912;6.918;2023-12-20T00:34:34;18.27;;;16.38;;
31596;SDS011;74162;50.912;6.918;2023-12-20T00:35:13;18.70;;;16.88;;
31596;SDS011;74162;50.912;6.918;2023-12-20T00:35:51;21.08;;;18.88;;
31596;SDS011;74162;50.912;6.918;2023-12-20T00:36:27;20.35;;;18.15;;
31596;SDS011;74162;50.912;6.918;2023-12-20T00:37:04;20.52;;;18.05;;
31596;SDS011;74162;50.912;6.918;2023-12-20T00:37:40;22.83;;;19.25;;
31596;SDS011;74162;50.912;6.918;2023-12-20T00:38:17;19.40;;;17.38;;
31596;SDS011;74162;50.912;6.918;2023-12-20T00:38:54;19.83;;;16.23;;
31596;SDS011;74162;50.912;6.918;2023-12-20T00:39:39;18.50;;;16.60;;
31596;SDS011;74162;50.912;6.918;2023-12-20T00:40:17;18.17;;;16.27;;
31596;SDS011;74162;50.912;6.918;2023-12-20T00:41:01;18.58;;;16.70;;
31596;SDS011;74162;50.912;6.918;2023-12-20T00:41:43;18.25;;;16.45;;
31596;SDS011;74162;50.912;6.918;2023-12-20T00:42:25;17.27;;;15.63;;
31596;SDS011;74162;50.912;6.918;2023-12-20T00:43:15;17.90;;;16.17;;
31596;SDS011;74162;50.912;6.918;2023-12-20T00:43:54;17.77;;;15.98;;
31596;SDS011;74162;50.912;6.918;2023-12-20T00:44:35;17.40;;;15.57;;
31596;SDS011;74162;50.912;6.918;2023-12-20T00:45:09;19.08;;;17.17;;
31596;SDS011;74162;50.912;6.918;2023-12-20T00:45:44;18.58;;;16.33;;
31596;SDS011;74162;50.912;6.918;2023-12-20T00:46:27;19.73;;;16.85;;
31596;SDS011;74162;50.912;6.918;2023-12-20T00:47:04;17.67;;;15.88;;
31596;SDS011;74162;50.912;6.918;2023-12-20T00:47:48;17.70;;;15.85;;
31596;SDS011;74162;50.912;6.918;2023-12-20T00:48:22;17.00;;;15.20;;
31596;SDS011;74162;50.912;6.918;2023-12-20T00:49:02;17.65;;;15.88;;
31596;SDS011;74162;50.912;6.918;2023-12-20T00:49:35;18.10;;;16.20;;
31596;SDS011;74162;50.912;6.918;2023-12-20T00:50:19;18.40;;;16.50;;
31596;SDS011;74162;50.912;6.918;2023-12-20T00:51:04;18.25;;;16.35;;
31596;SDS011;74162;50.912;6.918;2023-12-20T00:51:41;18.17;;;16.23;;
31596;SDS011;74162;50.912;6.918;2023-12-20T00:52:18;19.20;;;16.98;;
31596;SDS011;74162;50.912;6.918;2023-12-20T00:52:59;19.75;;;17.60;;
31596;SDS011;74162;50.912;6.918;2023-12-20T00:53:40;18.48;;;16.50;;
31596;SDS011;74162;50.912;6.918;2023-12-20T00:54:16;18.17;;;16.27;;
31596;SDS011;74162;50.912;6.918;2023-12-20T00:55:03;18.35;;;16.58;;
31596;SDS011;74162;50.912;6.918;2023-12-20T00:55:45;16.67;;;14.98;;
31596;SDS011;74162;50.912;6.918;2023-12-20T00:56:18;18.83;;;16.17;;
31596;SDS011;74162;50.912;6.918;2023-12-20T00:56:58;17.20;;;15.50;;
31596;SDS011;74162;50.912;6.918;2023-12-20T00:57:32;18.17;;;16.27;;
31596;SDS011;74162;50.912;6.918;2023-12-20T00:58:08;17.63;;;14.85;;
31596;SDS011;74162;50.912;6.918;2023-12-20T00:58:51;16.88;;;14.63;;
31596;SDS011;74162;50.912;6.918;2023-12-20T00:59:24;17.08;;;15.13;;
31596;SDS011;74162;50.912;6.918;2023-12-20T01:00:10;17.80;;;15.80;;
31596;SDS011;74162;50.912;6.918;2023-12-20T01:00:47;16.88;;;15.07;;
31596;SDS011;74162;50.912;6.918;2023-12-20T01:01:30;16.02;;;14.43;;
31596;SDS011;74162;50.912;6.918;2023-12-20T01:02:04;17.10;;;15.40;;
31596;SDS011;74162;50.912;6.918;2023-12-20T01:02:38;16.50;;;14.80;;
31596;SDS011;74162;50.912;6.918;2023-12-20T01:03:14;15.60;;;13.70;;
31596;SDS011;74162;50.912;6.918;2023-12-20T01:03:48;18.55;;;15.73;;
31596;SDS011;74162;50.912;6.918;2023-12-20T01:04:27;17.80;;;15.65;;
31596;SDS011;74162;50.912;6.918;2023-12-20T01:05:05;17.15;;;15.13;;
31596;SDS011;74162;50.912;6.918;2023-12-20T01:05:41;17.80;;;15.13;;
31596;SDS011;74162;50.912;6.918;2023-12-20T01:06:17;16.50;;;14.57;;
31596;SDS011;74162;50.912;6.918;2023-12-20T01:06:53;19.00;;;15.25;;
31596;SDS011;74162;50.912;6.918;2023-12-20T01:07:27;17.85;;;14.93;;
31596;SDS011;74162;50.912;6.918;2023-12-20T01:08:04;18.88;;;14.75;;
31596;SDS011;74162;50.912;6.918;2023-12-20T01:08:43;17.35;;;15.35;;
31596;SDS011;74162;50.912;6.918;2023-12-20T01:09:19;17.45;;;14.80;;
31596;SDS011;74162;50.912;6.918;2023-12-20T01:09:55;17.05;;;15.25;;
31596;SDS011;74162;50.912;6.918;2023-12-20T01:10:40;19.42;;;15.32;;
31596;SDS011;74162;50.912;6.918;2023-12-20T01:11:14;16.60;;;14.27;;
31596;SDS011;74162;50.912;6.918;2023-12-20T01:11:54;14.48;;;13.00;;
31596;SDS011;74162;50.912;6.918;2023-12-20T01:12:37;17.52;;;13.95;;
31596;SDS011;74162;50.912;6.918;2023-12-20T01:13:14;17.98;;;14.68;;
31596;SDS011;74162;50.912;6.918;2023-12-20T01:13:48;16.85;;;14.65;;
31596;SDS011;74162;50.912;6.918;2023-12-20T01:14:25;18.67;;;14.02;;
31596;SDS011;74162;50.912;6.918;2023-12-20T01:15:18;16.58;;;14.65;;
31596;SDS011;74162;50.912;6.918;2023-12-20T01:15:55;18.40;;;14.35;;
31596;SDS011;74162;50.912;6.918;2023-12-20T01:16:29;17.63;;;14.18;;
31596;SDS011;74162;50.912;6.918;2023-12-20T01:17:27;19.27;;;13.90;;
31596;SDS011;74162;50.912;6.918;2023-12-20T01:18:11;18.70;;;15.18;;
31596;SDS011;74162;50.912;6.918;2023-12-20T01:18:46;20.85;;;15.52;;
31596;SDS011;74162;50.912;6.918;2023-12-20T01:19:24;20.60;;;15.35;;
31596;SDS011;74162;50.912;6.918;2023-12-20T01:20:03;19.38;;;15.13;;
31596;SDS011;74162;50.912;6.918;2023-12-20T01:20:38;21.23;;;15.07;;
31596;SDS011;74162;50.912;6.918;2023-12-20T01:21:37;23.42;;;16.88;;
31596;SDS011;74162;50.912;6.918;2023-12-20T01:22:25;21.17;;;16.00;;
31596;SDS011;74162;50.912;6.918;2023-12-20T01:23:11;22.73;;;17.20;;
31596;SDS011;74162;50.912;6.918;2023-12-20T01:23:49;28.52;;;17.65;;
31596;SDS011;74162;50.912;6.918;2023-12-20T01:24:23;22.77;;;16.10;;
31596;SDS011;74162;50.912;6.918;2023-12-20T01:24:59;22.45;;;17.85;;
31596;SDS011;74162;50.912;6.918;2023-12-20T01:25:34;24.02;;;16.33;;
31596;SDS011;74162;50.912;6.918;2023-12-20T01:26:08;24.20;;;17.23;;
31596;SDS011;74162;50.912;6.918;2023-12-20T01:26:49;22.13;;;17.35;;
31596;SDS011;74162;50.912;6.918;2023-12-20T01:27:27;27.02;;;17.27;;
31596;SDS011;74162;50.912;6.918;2023-12-20T01:28:04;25.42;;;18.38;;
31596;SDS011;74162;50.912;6.918;2023-12-20T01:28:38;22.50;;;16.80;;
31596;SDS011;74162;50.912;6.918;2023-12-20T01:29:15;26.35;;;18.55;;
31596;SDS011;74162;50.912;6.918;2023-12-20T01:29:51;26.42;;;18.67;;
31596;SDS011;74162;50.912;6.918;2023-12-20T01:30:31;29.35;;;20.05;;
31596;SDS011;74162;50.912;6.918;2023-12-20T01:31:08;29.08;;;21.67;;
31596;SDS011;74162;50.912;6.918;2023-12-20T01:31:51;30.48;;;23.17;;
31596;SDS011;74162;50.912;6.918;2023-12-20T01:32:35;31.27;;;23.50;;
31596;SDS011;74162;50.912;6.918;2023-12-20T01:33:09;33.05;;;23.88;;
31596;SDS011;74162;50.912;6.918;2023-12-20T01:33:53;48.53;;;33.10;;
31596;SDS011;74162;50.912;6.918;2023-12-20T01:34:37;39.85;;;30.23;;
31596;SDS011;74162;50.912;6.918;2023-12-20T01:35:10;40.67;;;31.15;;
31596;SDS011;74162;50.912;6.918;2023-12-20T01:35:59;40.80;;;31.17;;
31596;SDS011;74162;50.912;6.918;2023-12-20T01:36:33;38.20;;;29.38;;
31596;SDS011;74162;50.912;6.918;2023-12-20T01:37:07;39.65;;;30.45;;
31596;SDS011;74162;50.912;6.918;2023-12-20T01:37:46;45.05;;;30.50;;
31596;SDS011;74162;50.912;6.918;2023-12-20T01:38:23;44.08;;;32.80;;
31596;SDS011;74162;50.912;6.918;2023-12-20T01:39:00;39.55;;;30.63;;
31596;SDS011;74162;50.912;6.918;2023-12-20T01:39:47;41.35;;;31.77;;
31596;SDS011;74162;50.912;6.918;2023-12-20T01:40:23;38.97;;;29.95;;
31596;SDS011;74162;50.912;6.918;2023-12-20T01:41:06;35.33;;;24.98;;
31596;SDS011;74162;50.912;6.918;2023-12-20T01:41:42;36.97;;;26.52;;
31596;SDS011;74162;50.912;6.918;2023-12-20T01:42:15;37.78;;;27.38;;
31596;SDS011;74162;50.912;6.918;2023-12-20T01:42:58;38.63;;;28.02;;
31596;SDS011;74162;50.912;6.918;2023-12-20T01:43:39;37.55;;;28.75;;
31596;SDS011;74162;50.912;6.918;2023-12-20T01:44:25;36.60;;;25.45;;
31596;SDS011;74162;50.912;6.918;2023-12-20T01:45:00;36.95;;;25.67;;
31596;SDS011;74162;50.912;6.918;2023-12-20T01:45:42;36.28;;;24.83;;
31596;SDS011;74162;50.912;6.918;2023-12-20T01:46:29;35.22;;;25.83;;
31596;SDS011;74162;50.912;6.918;2023-12-20T01:47:05;41.75;;;28.10;;
31596;SDS011;74162;50.912;6.918;2023-12-20T01:47:39;40.35;;;27.45;;
31596;SDS011;74162;50.912;6.918;2023-12-20T01:48:27;37.80;;;27.90;;
31596;SDS011;74162;50.912;6.918;2023-12-20T01:49:06;41.72;;;27.92;;
31596;SDS011;74162;50.912;6.918;2023-12-20T01:49:40;34.30;;;25.05;;
31596;SDS011;74162;50.912;6.918;2023-12-20T01:50:15;35.97;;;25.02;;
31596;SDS011;74162;50.912;6.918;2023-12-20T01:50:49;38.63;;;24.85;;
31596;SDS011;74162;50.912;6.918;2023-12-20T01:51:26;30.27;;;23.75;;
31596;SDS011;74162;50.912;6.918;2023-12-20T01:52:03;31.63;;;23.65;;
31596;SDS011;74162;50.912;6.918;2023-12-20T01:52:47;32.35;;;23.83;;
31596;SDS011;74162;50.912;6.918;2023-12-20T01:53:24;33.67;;;24.15;;
31596;SDS011;74162;50.912;6.918;2023-12-20T01:54:02;31.73;;;22.77;;
31596;SDS011;74162;50.912;6.918;2023-12-20T01:54:44;31.25;;;22.52;;
31596;SDS011;74162;50.912;6.918;2023-12-20T01:55:18;32.10;;;22.55;;
31596;SDS011;74162;50.912;6.918;2023-12-20T01:55:54;28.38;;;21.98;;
31596;SDS011;74162;50.912;6.918;2023-12-20T01:56:32;28.23;;;21.52;;
31596;SDS011;74162;50.912;6.918;2023-12-20T01:57:17;33.72;;;21.83;;
31596;SDS011;74162;50.912;6.918;2023-12-20T01:58:11;24.70;;;19.70;;
31596;SDS011;74162;50.912;6.918;2023-12-20T01:58:48;24.77;;;19.40;;
31596;SDS011;74162;50.912;6.918;2023-12-20T01:59:30;28.83;;;20.45;;
31596;SDS011;74162;50.912;6.918;2023-12-20T02:00:15;28.08;;;19.05;;
31596;SDS011;74162;50.912;6.918;2023-12-20T02:01:00;25.92;;;18.23;;
31596;SDS011;74162;50.912;6.918;2023-12-20T02:01:35;24.65;;;17.33;;
31596;SDS011;74162;50.912;6.918;2023-12-20T02:02:14;25.35;;;17.38;;
31596;SDS011;74162;50.912;6.918;2023-12-20T02:02:50;25.48;;;17.90;;
31596;SDS011;74162;50.912;6.918;2023-12-20T02:03:45;29.02;;;18.92;;
31596;SDS011;74162;50.912;6.918;2023-12-20T02:04:30;27.33;;;18.00;;
31596;SDS011;74162;50.912;6.918;2023-12-20T02:05:10;25.13;;;17.73;;
31596;SDS011;74162;50.912;6.918;2023-12-20T02:06:14;21.17;;;15.23;;
31596;SDS011;74162;50.912;6.918;2023-12-20T02:06:49;24.48;;;16.08;;
31596;SDS011;74162;50.912;6.918;2023-12-20T02:07:47;25.35;;;16.77;;
31596;SDS011;74162;50.912;6.918;2023-12-20T02:08:25;25.67;;;15.05;;
31596;SDS011;74162;50.912;6.918;2023-12-20T02:09:00;22.20;;;13.55;;
31596;SDS011;74162;50.912;6.918;2023-12-20T02:09:43;24.10;;;15.60;;
31596;SDS011;74162;50.912;6.918;2023-12-20T02:10:37;23.50;;;13.27;;
31596;SDS011;74162;50.912;6.918;2023-12-20T02:11:47;23.60;;;12.82;;
31596;SDS011;74162;50.912;6.918;2023-12-20T02:12:43;23.25;;;13.00;;
31596;SDS011;74162;50.912;6.918;2023-12-20T02:13:31;20.77;;;12.95;;
31596;SDS011;74162;50.912;6.918;2023-12-20T02:14:26;20.65;;;12.57;;
31596;SDS011;74162;50.912;6.918;2023-12-20T02:15:08;22.17;;;12.68;;
31596;SDS011;74162;50.912;6.918;2023-12-20T02:17:09;25.02;;;12.70;;
31596;SDS011;74162;50.912;6.918;2023-12-20T02:17:56;21.23;;;11.57;;
31596;SDS011;74162;50.912;6.918;2023-12-20T02:18:33;23.13;;;12.48;;
31596;SDS011;74162;50.912;6.918;2023-12-20T02:19:25;22.40;;;12.25;;
31596;SDS011;74162;50.912;6.918;2023-12-20T02:20:11;23.83;;;11.68;;
31596;SDS011;74162;50.912;6.918;2023-12-20T02:20:49;22.52;;;11.55;;
31596;SDS011;74162;50.912;6.918;2023-12-20T02:22:18;26.13;;;12.70;;
31596;SDS011;74162;50.912;6.918;2023-12-20T02:23:55;29.85;;;11.52;;
31596;SDS011;74162;50.912;6.918;2023-12-20T02:26:18;23.23;;;11.40;;
31596;SDS011;74162;50.912;6.918;2023-12-20T02:28:54;25.13;;;10.32;;
31596;SDS011;74162;50.912;6.918;2023-12-20T02:29:57;35.17;;;11.20;;
31596;SDS011;74162;50.912;6.918;2023-12-20T02:31:09;27.10;;;10.30;;
31596;SDS011;74162;50.912;6.918;2023-12-20T02:32:44;28.75;;;9.43;;
31596;SDS011;74162;50.912;6.918;2023-12-20T02:34:18;23.30;;;9.43;;
31596;SDS011;74162;50.912;6.918;2023-12-20T02:35:31;23.90;;;8.05;;
31596;SDS011;74162;50.912;6.918;2023-12-20T02:36:15;23.88;;;8.77;;
31596;SDS011;74162;50.912;6.918;2023-12-20T02:36:53;28.77;;;9.23;;
31596;SDS011;74162;50.912;6.918;2023-12-20T02:38:20;21.90;;;8.15;;
31596;SDS011;74162;50.912;6.918;2023-12-20T02:39:23;28.65;;;8.77;;
31596;SDS011;74162;50.912;6.918;2023-12-20T02:39:59;25.05;;;8.00;;
31596;SDS011;74162;50.912;6.918;2023-12-20T02:40:46;24.00;;;7.47;;
31596;SDS011;74162;50.912;6.918;2023-12-20T02:41:36;20.98;;;7.60;;
31596;SDS011;74162;50.912;6.918;2023-12-20T02:42:38;22.25;;;7.70;;
31596;SDS011;74162;50.912;6.918;2023-12-20T02:43:30;25.23;;;8.15;;
31596;SDS011;74162;50.912;6.918;2023-12-20T02:44:27;23.23;;;9.20;;
31596;SDS011;74162;50.912;6.918;2023-12-20T02:45:31;20.35;;;7.95;;
31596;SDS011;74162;50.912;6.918;2023-12-20T02:46:19;26.67;;;8.82;;
31596;SDS011;74162;50.912;6.918;2023-12-20T02:47:36;23.58;;;9.20;;
31596;SDS011;74162;50.912;6.918;2023-12-20T02:48:35;23.80;;;8.45;;
31596;SDS011;74162;50.912;6.918;2023-12-20T02:49:27;22.13;;;8.13;;
31596;SDS011;74162;50.912;6.918;2023-12-20T02:50:20;26.77;;;8.07;;
31596;SDS011;74162;50.912;6.918;2023-12-20T02:51:24;23.58;;;8.82;;
31596;SDS011;74162;50.912;6.918;2023-12-20T02:52:32;25.08;;;8.50;;
31596;SDS011;74162;50.912;6.918;2023-12-20T02:53:15;24.08;;;7.97;;
31596;SDS011;74162;50.912;6.918;2023-12-20T02:54:00;27.83;;;8.82;;
31596;SDS011;74162;50.912;6.918;2023-12-20T02:56:01;24.77;;;7.75;;
31596;SDS011;74162;50.912;6.918;2023-12-20T02:57:51;21.60;;;7.18;;
31596;SDS011;74162;50.912;6.918;2023-12-20T02:58:38;24.17;;;7.80;;
31596;SDS011;74162;50.912;6.918;2023-12-20T02:59:32;22.50;;;7.00;;
31596;SDS011;74162;50.912;6.918;2023-12-20T03:00:24;19.60;;;6.90;;
31596;SDS011;74162;50.912;6.918;2023-12-20T03:01:29;20.60;;;6.30;;
31596;SDS011;74162;50.912;6.918;2023-12-20T03:02:17;20.70;;;6.78;;
31596;SDS011;74162;50.912;6.918;2023-12-20T03:03:20;24.48;;;7.32;;
31596;SDS011;74162;50.912;6.918;2023-12-20T03:04:09;28.58;;;6.30;;
31596;SDS011;74162;50.912;6.918;2023-12-20T03:06:29;22.20;;;6.25;;
31596;SDS011;74162;50.912;6.918;2023-12-20T03:07:51;22.10;;;6.13;;
31596;SDS011;74162;50.912;6.918;2023-12-20T03:09:04;21.40;;;5.75;;
31596;SDS011;74162;50.912;6.918;2023-12-20T03:10:13;20.05;;;5.80;;
31596;SDS011;74162;50.912;6.918;2023-12-20T03:11:01;29.30;;;7.60;;
31596;SDS011;74162;50.912;6.918;2023-12-20T03:12:09;24.50;;;5.95;;
31596;SDS011;74162;50.912;6.918;2023-12-20T03:13:07;23.92;;;6.47;;
31596;SDS011;74162;50.912;6.918;2023-12-20T03:13:46;19.63;;;5.95;;
31596;SDS011;74162;50.912;6.918;2023-12-20T03:14:34;21.90;;;5.90;;
31596;SDS011;74162;50.912;6.918;2023-12-20T03:15:20;22.33;;;6.30;;
31596;SDS011;74162;50.912;6.918;2023-12-20T03:16:11;22.90;;;5.72;;
31596;SDS011;74162;50.912;6.918;2023-12-20T03:17:27;18.10;;;6.18;;
31596;SDS011;74162;50.912;6.918;2023-12-20T03:17:53;24.70;;;5.93;;
31596;SDS011;74162;50.912;6.918;2023-12-20T03:18:31;22.75;;;6.10;;
31596;SDS011;74162;50.912;6.918;2023-12-20T03:19:05;18.42;;;6.18;;
31596;SDS011;74162;50.912;6.918;2023-12-20T03:19:47;20.35;;;5.72;;
31596;SDS011;74162;50.912;6.918;2023-12-20T03:20:25;21.92;;;5.43;;
31596;SDS011;74162;50.912;6.918;2023-12-20T03:21:04;23.33;;;5.95;;
31596;SDS011;74162;50.912;6.918;2023-12-20T03:21:43;18.70;;;5.40;;
31596;SDS011;74162;50.912;6.918;2023-12-20T03:22:18;23.48;;;5.75;;
31596;SDS011;74162;50.912;6.918;2023-12-20T03:23:01;23.63;;;5.43;;
31596;SDS011;74162;50.912;6.918;2023-12-20T03:23:50;19.20;;;5.25;;
31596;SDS011;74162;50.912;6.918;2023-12-20T03:24:52;20.92;;;5.40;;
31596;SDS011;74162;50.912;6.918;2023-12-20T03:25:29;27.10;;;6.40;;
31596;SDS011;74162;50.912;6.918;2023-12-20T03:26:06;20.13;;;5.63;;
31596;SDS011;74162;50.912;6.918;2023-12-20T03:26:51;23.80;;;5.50;;
31596;SDS011;74162;50.912;6.918;2023-12-20T03:27:36;25.45;;;5.90;;
31596;SDS011;74162;50.912;6.918;2023-12-20T03:28:11;21.80;;;5.32;;
31596;SDS011;74162;50.912;6.918;2023-12-20T03:29:08;20.63;;;5.25;;
31596;SDS011;74162;50.912;6.918;2023-12-20T03:30:05;26.05;;;5.38;;
31596;SDS011;74162;50.912;6.918;2023-12-20T03:30:51;26.80;;;5.65;;
31596;SDS011;74162;50.912;6.918;2023-12-20T03:31:25;19.23;;;5.65;;
31596;SDS011;74162;50.912;6.918;2023-12-20T03:32:16;20.65;;;5.13;;
31596;SDS011;74162;50.912;6.918;2023-12-20T03:33:03;25.55;;;5.63;;
31596;SDS011;74162;50.912;6.918;2023-12-20T03:33:44;20.10;;;6.63;;
31596;SDS011;74162;50.912;6.918;2023-12-20T03:34:51;18.40;;;5.45;;
31596;SDS011;74162;50.912;6.918;2023-12-20T03:35:40;20.40;;;5.60;;
31596;SDS011;74162;50.912;6.918;2023-12-20T03:36:28;21.67;;;6.03;;
31596;SDS011;74162;50.912;6.918;2023-12-20T03:37:28;19.50;;;5.22;;
31596;SDS011;74162;50.912;6.918;2023-12-20T03:39:23;21.55;;;5.85;;
31596;SDS011;74162;50.912;6.918;2023-12-20T03:42:00;20.05;;;5.60;;
31596;SDS011;74162;50.912;6.918;2023-12-20T03:43:18;23.25;;;6.00;;
31596;SDS011;74162;50.912;6.918;2023-12-20T03:44:59;26.25;;;6.20;;
31596;SDS011;74162;50.912;6.918;2023-12-20T03:46:13;21.98;;;6.63;;
31596;SDS011;74162;50.912;6.918;2023-12-20T03:47:10;23.08;;;5.80;;
31596;SDS011;74162;50.912;6.918;2023-12-20T03:48:02;20.92;;;6.45;;
31596;SDS011;74162;50.912;6.918;2023-12-20T03:49:07;24.02;;;6.13;;
31596;SDS011;74162;50.912;6.918;2023-12-20T03:50:07;20.67;;;5.45;;
31596;SDS011;74162;50.912;6.918;2023-12-20T03:51:30;25.08;;;6.95;;
31596;SDS011;74162;50.912;6.918;2023-12-20T03:52:22;28.55;;;7.22;;
31596;SDS011;74162;50.912;6.918;2023-12-20T03:53:29;27.10;;;6.65;;
31596;SDS011;74162;50.912;6.918;2023-12-20T03:54:50;26.38;;;6.88;;
31596;SDS011;74162;50.912;6.918;2023-12-20T03:55:32;23.42;;;6.07;;
31596;SDS011;74162;50.912;6.918;2023-12-20T03:56:48;20.20;;;6.18;;
31596;SDS011;74162;50.912;6.918;2023-12-20T03:57:52;21.30;;;5.85;;
31596;SDS011;74162;50.912;6.918;2023-12-20T03:59:02;24.77;;;6.50;;
31596;SDS011;74162;50.912;6.918;2023-12-20T04:00:33;22.83;;;6.40;;
31596;SDS011;74162;50.912;6.918;2023-12-20T04:01:16;17.67;;;6.20;;
31596;SDS011;74162;50.912;6.918;2023-12-20T04:02:22;23.40;;;7.00;;
31596;SDS011;74162;50.912;6.918;2023-12-20T04:03:21;22.40;;;5.97;;
31596;SDS011;74162;50.912;6.918;2023-12-20T04:05:42;23.02;;;7.13;;
31596;SDS011;74162;50.912;6.918;2023-12-20T04:07:10;28.77;;;7.32;;
31596;SDS011;74162;50.912;6.918;2023-12-20T04:08:34;20.15;;;6.40;;
31596;SDS011;74162;50.912;6.918;2023-12-20T04:09:26;23.77;;;6.78;;
31596;SDS011;74162;50.912;6.918;2023-12-20T04:11:59;26.58;;;7.13;;
31596;SDS011;74162;50.912;6.918;2023-12-20T04:14:21;23.73;;;7.78;;
31596;SDS011;74162;50.912;6.918;2023-12-20T04:15:29;24.55;;;6.63;;
31596;SDS011;74162;50.912;6.918;2023-12-20T04:16:17;26.50;;;7.28;;
31596;SDS011;74162;50.912;6.918;2023-12-20T04:16:49;25.40;;;7.10;;
31596;SDS011;74162;50.912;6.918;2023-12-20T04:17:21;25.05;;;7.28;;
31596;SDS011;74162;50.912;6.918;2023-12-20T04:18:46;25.88;;;7.72;;
31596;SDS011;74162;50.912;6.918;2023-12-20T04:19:51;22.33;;;6.68;;
31596;SDS011;74162;50.912;6.918;2023-12-20T04:20:46;23.88;;;7.32;;
31596;SDS011;74162;50.912;6.918;2023-12-20T04:22:02;30.02;;;7.78;;
31596;SDS011;74162;50.912;6.918;2023-12-20T04:22:55;24.13;;;6.80;;
31596;SDS011;74162;50.912;6.918;2023-12-20T04:23:57;25.70;;;7.82;;
31596;SDS011;74162;50.912;6.918;2023-12-20T04:25:01;30.35;;;8.07;;
31596;SDS011;74162;50.912;6.918;2023-12-20T04:25:45;26.63;;;7.82;;
31596;SDS011;74162;50.912;6.918;2023-12-20T04:26:17;38.22;;;8.55;;
31596;SDS011;74162;50.912;6.918;2023-12-20T04:26:49;26.15;;;7.18;;
31596;SDS011;74162;50.912;6.918;2023-12-20T04:27:22;25.20;;;7.40;;
31596;SDS011;74162;50.912;6.918;2023-12-20T04:28:28;24.17;;;7.45;;
31596;SDS011;74162;50.912;6.918;2023-12-20T04:29:43;27.67;;;8.18;;
31596;SDS011;74162;50.912;6.918;2023-12-20T04:31:00;25.17;;;8.13;;
31596;SDS011;74162;50.912;6.918;2023-12-20T04:32:11;23.13;;;7.45;;
31596;SDS011;74162;50.912;6.918;2023-12-20T04:33:16;32.88;;;8.45;;
31596;SDS011;74162;50.912;6.918;2023-12-20T04:34:38;26.13;;;7.90;;
31596;SDS011;74162;50.912;6.918;2023-12-20T04:35:48;27.75;;;8.02;;
31596;SDS011;74162;50.912;6.918;2023-12-20T04:36:47;24.60;;;7.85;;
31596;SDS011;74162;50.912;6.918;2023-12-20T04:38:16;26.45;;;8.10;;
31596;SDS011;74162;50.912;6.918;2023-12-20T04:39:40;33.70;;;9.52;;
31596;SDS011;74162;50.912;6.918;2023-12-20T04:41:18;31.02;;;9.15;;
31596;SDS011;74162;50.912;6.918;2023-12-20T04:42:59;27.88;;;9.02;;
31596;SDS011;74162;50.912;6.918;2023-12-20T04:44:07;30.77;;;9.27;;
31596;SDS011;74162;50.912;6.918;2023-12-20T04:46:15;25.77;;;8.95;;
31596;SDS011;74162;50.912;6.918;2023-12-20T04:50:21;23.73;;;8.70;;
31596;SDS011;74162;50.912;6.918;2023-12-20T04:51:43;30.20;;;8.88;;
31596;SDS011;74162;50.912;6.918;2023-12-20T04:52:52;30.30;;;9.40;;
31596;SDS011;74162;50.912;6.918;2023-12-20T04:53:50;31.13;;;9.38;;
31596;SDS011;74162;50.912;6.918;2023-12-20T04:55:42;27.42;;;9.35;;
31596;SDS011;74162;50.912;6.918;2023-12-20T04:57:06;26.30;;;9.23;;
31596;SDS011;74162;50.912;6.918;2023-12-20T05:00:24;33.22;;;10.20;;
31596;SDS011;74162;50.912;6.918;2023-12-20T05:02:11;25.95;;;10.70;;
31596;SDS011;74162;50.912;6.918;2023-12-20T05:04:46;30.88;;;9.65;;
31596;SDS011;74162;50.912;6.918;2023-12-20T05:08:12;32.58;;;8.95;;
31596;SDS011;74162;50.912;6.918;2023-12-20T05:11:15;26.30;;;8.70;;
31596;SDS011;74162;50.912;6.918;2023-12-20T05:14:26;26.42;;;9.25;;